createdAt,value
2019-06-04T00:02:11.122Z,5.63
2019-06-04T00:04:42.287Z,5.20
2019-06-04T00:07:13.483Z,5.90
2019-06-04T00:09:44.619Z,6.13
2019-06-04T00:12:16.682Z,5.30
2019-06-04T00:14:47.905Z,5.23
2019-06-04T00:17:19.067Z,8.33
2019-06-04T00:19:50.234Z,6.57
2019-06-04T00:22:21.370Z,5.17
2019-06-04T00:24:52.489Z,4.97
2019-06-04T00:27:23.723Z,4.50
2019-06-04T00:29:56.042Z,4.77
2019-06-04T00:32:27.214Z,4.10
2019-06-04T00:34:58.403Z,4.87
2019-06-04T00:37:29.868Z,5.93
2019-06-04T00:40:02.770Z,4.70
2019-06-04T00:42:34.003Z,4.03
2019-06-04T00:45:06.994Z,6.57
2019-06-04T00:47:38.143Z,3.93
2019-06-04T00:50:09.927Z,4.60
2019-06-04T00:52:41.119Z,4.40
2019-06-04T00:55:30.801Z,3.30
2019-06-04T00:58:04.913Z,4.10
2019-06-04T01:00:40.028Z,4.80
2019-06-04T01:03:11.363Z,4.60
2019-06-04T01:05:42.676Z,4.40
2019-06-04T01:08:20.951Z,9.50
2019-06-04T01:10:46.881Z,4.10
2019-06-04T01:13:18.184Z,8.37
2019-06-04T01:15:49.369Z,4.67
2019-06-04T01:18:20.491Z,4.93
2019-06-04T01:20:51.714Z,6.07
2019-06-04T01:23:22.909Z,6.33
2019-06-04T01:25:54.901Z,4.40
2019-06-04T01:28:26.131Z,5.13
2019-06-04T01:30:57.238Z,4.03
2019-06-04T01:33:39.138Z,4.00
2019-06-04T01:36:02.295Z,5.03
2019-06-04T01:38:33.600Z,4.90
2019-06-04T01:41:05.067Z,5.23
2019-06-04T01:43:36.444Z,4.43
2019-06-04T01:46:07.890Z,4.80
2019-06-04T01:48:39.278Z,4.50
2019-06-04T01:51:10.541Z,4.73
2019-06-04T01:53:41.711Z,5.37
2019-06-04T01:56:13.191Z,5.30
2019-06-04T01:58:44.513Z,5.03
2019-06-04T02:01:15.733Z,5.10
2019-06-04T02:03:47.041Z,4.60
2019-06-04T02:06:18.278Z,5.10
2019-06-04T02:08:49.431Z,6.93
2019-06-04T02:11:20.644Z,8.37
2019-06-04T02:13:51.843Z,10.57
2019-06-04T02:16:25.915Z,11.07
2019-06-04T02:18:55.659Z,10.97
2019-06-04T02:21:26.723Z,14.00
2019-06-04T02:23:57.846Z,8.17
2019-06-04T02:26:29.002Z,9.40
2019-06-04T02:29:00.285Z,15.40
2019-06-04T02:31:31.376Z,7.37
2019-06-04T02:34:02.498Z,6.03
2019-06-04T02:36:34.113Z,6.20
2019-06-04T02:39:07.997Z,5.90
2019-06-04T02:41:40.103Z,5.53
2019-06-04T02:44:11.519Z,9.63
2019-06-04T02:46:43.433Z,5.30
2019-06-04T02:49:16.153Z,6.13
2019-06-04T02:51:48.169Z,4.70
2019-06-04T02:54:21.172Z,5.10
2019-06-04T02:56:54.978Z,4.97
2019-06-04T02:59:26.836Z,5.63
2019-06-04T03:01:59.001Z,5.00
2019-06-04T03:04:30.125Z,4.80
2019-06-04T03:07:01.293Z,5.90
2019-06-04T03:09:32.479Z,4.20
2019-06-04T03:12:03.747Z,5.03
2019-06-04T03:14:34.899Z,5.37
2019-06-04T03:17:06.289Z,4.80
2019-06-04T03:19:37.431Z,3.93
2019-06-04T03:22:08.497Z,4.40
2019-06-04T03:24:39.665Z,4.03
2019-06-04T03:27:11.179Z,5.27
2019-06-04T03:29:43.508Z,4.50
2019-06-04T03:32:15.239Z,4.23
2019-06-04T03:34:47.478Z,4.13
2019-06-04T03:37:18.921Z,3.93
2019-06-04T03:39:51.396Z,4.13
2019-06-04T03:42:23.626Z,7.00
2019-06-04T03:44:54.722Z,5.33
2019-06-04T03:47:25.958Z,4.70
2019-06-04T03:49:57.091Z,4.50
2019-06-04T03:52:28.182Z,3.77
2019-06-04T03:54:59.361Z,3.90
2019-06-04T03:57:30.617Z,4.20
2019-06-04T04:00:01.883Z,3.67
2019-06-04T04:02:33.248Z,3.87
2019-06-04T04:05:04.518Z,3.67
2019-06-04T04:07:35.637Z,4.40
2019-06-04T04:10:07.779Z,3.40
2019-06-04T04:12:38.837Z,6.73
2019-06-04T04:15:10.661Z,35.73
2019-06-04T04:17:41.745Z,4.13
2019-06-04T04:20:13.106Z,3.43
2019-06-04T04:22:44.312Z,3.87
2019-06-04T04:25:15.451Z,6.93
2019-06-04T04:27:46.650Z,3.23
2019-06-04T04:30:57.291Z,3.80
2019-06-04T04:33:28.451Z,3.57
2019-06-04T04:35:59.583Z,9.40
2019-06-04T04:38:30.703Z,3.60
2019-06-04T04:41:01.781Z,3.47
2019-06-04T04:43:32.837Z,3.77
2019-06-04T04:46:03.907Z,4.23
2019-06-04T04:49:22.167Z,3.63
2019-06-04T04:51:54.313Z,3.40
2019-06-04T04:54:25.698Z,3.93
2019-06-04T04:56:57.146Z,3.33
2019-06-04T04:59:28.225Z,3.90
2019-06-04T05:01:59.780Z,3.67
2019-06-04T05:04:48.112Z,3.83
2019-06-04T05:07:04.725Z,3.73
2019-06-04T05:09:36.071Z,3.37
2019-06-04T05:12:08.605Z,2.77
2019-06-04T05:14:41.722Z,3.27
2019-06-04T05:17:14.513Z,3.20
2019-06-04T05:19:48.326Z,9.70
2019-06-04T05:22:19.551Z,3.13
2019-06-04T05:24:50.732Z,3.30
2019-06-04T05:27:21.861Z,13.63
2019-06-04T05:29:53.053Z,3.83
2019-06-04T05:32:24.161Z,2.73
2019-06-04T05:35:04.474Z,2.80
2019-06-04T05:37:29.206Z,2.73
2019-06-04T05:40:00.440Z,2.83
2019-06-04T05:42:32.765Z,3.07
2019-06-04T05:45:04.790Z,2.93
2019-06-04T05:47:36.130Z,2.87
2019-06-04T05:50:07.514Z,3.00
2019-06-04T05:52:38.578Z,6.90
2019-06-04T05:55:09.879Z,3.50
2019-06-04T05:57:41.049Z,6.47
2019-06-04T06:00:12.610Z,3.40
2019-06-04T06:02:43.707Z,3.10
2019-06-04T06:05:23.859Z,3.17
2019-06-04T06:07:47.709Z,4.90
2019-06-04T06:10:18.908Z,2.83
2019-06-04T06:12:50.113Z,2.77
2019-06-04T06:15:21.588Z,3.20
2019-06-04T06:17:52.914Z,3.30
2019-06-04T06:20:24.401Z,2.90
2019-06-04T06:23:09.956Z,4.20
2019-06-04T06:25:30.315Z,2.60
2019-06-04T06:28:01.452Z,2.33
2019-06-04T06:30:32.830Z,2.53
2019-06-04T06:33:04.230Z,1.80
2019-06-04T06:35:46.996Z,5.70
2019-06-04T06:38:08.567Z,1.50
2019-06-04T06:40:39.736Z,3.00
2019-06-04T06:43:10.933Z,1.50
2019-06-04T06:45:42.267Z,2.23
2019-06-04T06:48:13.557Z,2.00
2019-06-04T06:50:44.973Z,3.87
2019-06-04T06:53:16.157Z,2.80
2019-06-04T06:55:47.261Z,4.90
2019-06-04T06:58:18.521Z,3.73
2019-06-04T07:01:21.465Z,3.20
2019-06-04T07:03:52.874Z,2.17
2019-06-04T07:06:25.920Z,2.50
2019-06-04T07:08:58.303Z,2.20
2019-06-04T07:11:30.420Z,2.30
2019-06-04T07:14:03.824Z,3.47
2019-06-04T07:16:37.419Z,2.00
2019-06-04T07:19:08.898Z,4.10
2019-06-04T07:21:40.299Z,2.40
2019-06-04T07:24:11.647Z,4.33
2019-06-04T07:26:43.722Z,2.17
2019-06-04T07:29:14.993Z,7.60
2019-06-04T07:31:46.217Z,3.17
2019-06-04T07:34:17.444Z,2.33
2019-06-04T07:36:48.567Z,1.57
2019-06-04T07:39:19.929Z,2.30
2019-06-04T07:41:51.087Z,2.67
2019-06-04T07:44:22.272Z,3.53
2019-06-04T07:46:53.401Z,2.57
2019-06-04T07:49:24.494Z,2.30
2019-06-04T07:51:55.819Z,2.53
2019-06-04T07:54:27.070Z,3.03
2019-06-04T07:56:58.137Z,4.30
2019-06-04T07:59:29.337Z,2.40
2019-06-04T08:02:07.802Z,3.00
2019-06-04T08:04:35.135Z,2.77
2019-06-04T08:07:09.766Z,3.57
2019-06-04T08:09:40.250Z,2.87
2019-06-04T08:12:12.239Z,2.93
2019-06-04T08:14:47.724Z,4.77
2019-06-04T08:17:16.335Z,8.90
2019-06-04T08:19:47.365Z,2.90
2019-06-04T08:22:18.544Z,2.80
2019-06-04T08:24:49.762Z,2.50
2019-06-04T08:27:20.801Z,2.53
2019-06-04T08:29:52.030Z,2.80
2019-06-04T08:32:23.094Z,7.43
2019-06-04T08:34:54.216Z,4.43
2019-06-04T08:37:25.347Z,3.20
2019-06-04T08:39:56.620Z,2.90
2019-06-04T08:42:27.863Z,5.80
2019-06-04T08:45:02.456Z,2.50
2019-06-04T08:47:32.169Z,7.70
2019-06-04T08:50:03.368Z,2.70
2019-06-04T08:52:35.761Z,2.30
2019-06-04T08:55:07.260Z,2.83
2019-06-04T08:57:39.673Z,3.83
2019-06-04T09:00:11.897Z,3.00
2019-06-04T09:03:17.864Z,2.63
2019-06-04T09:05:50.383Z,2.87
2019-06-04T09:08:22.084Z,2.50
2019-06-04T09:10:53.764Z,3.13
2019-06-04T09:13:25.044Z,2.77
2019-06-04T09:15:56.646Z,3.03
2019-06-04T09:18:28.027Z,5.80
2019-06-04T09:20:59.276Z,3.67
2019-06-04T09:23:30.496Z,2.80
2019-06-04T09:26:02.813Z,3.00
2019-06-04T09:28:33.892Z,2.63
2019-06-04T09:31:05.120Z,6.13
2019-06-04T09:33:36.213Z,3.00
2019-06-04T09:36:07.360Z,2.70
2019-06-04T09:38:40.539Z,3.80
2019-06-04T09:41:11.542Z,3.00
2019-06-04T09:43:44.034Z,6.20
2019-06-04T09:46:15.545Z,3.23
2019-06-04T09:48:48.286Z,2.90
2019-06-04T09:51:19.814Z,3.00
2019-06-04T09:53:51.147Z,11.53
2019-06-04T09:56:22.282Z,3.07
2019-06-04T09:58:53.504Z,3.60
2019-06-04T10:01:24.822Z,2.57
2019-06-04T10:03:56.165Z,3.20
2019-06-04T10:06:27.471Z,2.93
2019-06-04T10:08:58.717Z,2.90
2019-06-04T10:11:30.004Z,3.10
2019-06-04T10:14:01.326Z,3.53
2019-06-04T10:16:32.573Z,3.03
2019-06-04T10:19:03.806Z,3.77
2019-06-04T10:21:35.006Z,3.10
2019-06-04T10:24:06.536Z,3.27
2019-06-04T10:26:37.739Z,3.47
2019-06-04T10:29:09.659Z,3.57
2019-06-04T10:31:41.068Z,3.03
2019-06-04T10:34:12.188Z,3.50
2019-06-04T10:36:44.577Z,3.27
2019-06-04T10:39:16.137Z,3.43
2019-06-04T10:41:47.347Z,3.10
2019-06-04T10:44:18.517Z,2.97
2019-06-04T10:46:51.852Z,2.83
2019-06-04T10:49:24.323Z,3.30
2019-06-04T10:51:55.815Z,3.80
2019-06-04T10:54:27.103Z,3.17
2019-06-04T10:56:58.457Z,8.97
2019-06-04T10:59:29.752Z,3.47
2019-06-04T11:02:01.108Z,4.43
2019-06-04T11:04:32.278Z,3.20
2019-06-04T11:07:04.321Z,3.03
2019-06-04T11:09:35.637Z,3.17
2019-06-04T11:12:06.865Z,3.80
2019-06-04T11:14:38.100Z,3.20
2019-06-04T11:17:09.927Z,8.20
2019-06-04T11:19:41.163Z,3.10
2019-06-04T11:22:12.362Z,3.67
2019-06-04T11:24:43.653Z,3.60
2019-06-04T11:27:14.926Z,3.50
2019-06-04T11:29:46.092Z,3.70
2019-06-04T11:32:17.334Z,6.00
2019-06-04T11:34:49.544Z,3.47
2019-06-04T11:37:20.858Z,3.50
2019-06-04T11:39:52.427Z,3.00
2019-06-04T11:42:23.582Z,3.33
2019-06-04T11:45:09.181Z,4.17
2019-06-04T11:47:27.848Z,3.93
2019-06-04T11:49:59.829Z,3.73
2019-06-04T11:52:31.070Z,3.50
2019-06-04T11:55:02.695Z,4.40
2019-06-04T11:57:34.705Z,6.10
2019-06-04T12:00:08.066Z,3.37
2019-06-04T12:02:39.403Z,5.00
2019-06-04T12:05:10.688Z,5.47
2019-06-04T12:07:41.853Z,5.43
2019-06-04T12:10:16.108Z,4.10
2019-06-04T12:12:46.075Z,3.40
2019-06-04T12:15:17.538Z,3.30
2019-06-04T12:17:48.768Z,4.07
2019-06-04T12:20:20.084Z,3.13
2019-06-04T12:23:24.605Z,3.30
2019-06-04T12:25:24.226Z,3.40
2019-06-04T12:27:57.740Z,3.53
2019-06-04T12:30:29.874Z,2.50
2019-06-04T12:33:02.993Z,2.63
2019-06-04T12:35:35.056Z,2.53
2019-06-04T12:38:09.521Z,2.37
2019-06-04T12:40:40.260Z,2.83
2019-06-04T12:43:11.757Z,2.73
2019-06-04T12:45:47.030Z,3.67
2019-06-04T12:48:15.970Z,2.00
2019-06-04T12:50:47.229Z,3.70
2019-06-04T12:53:18.938Z,4.37
2019-06-04T12:55:50.513Z,3.53
2019-06-04T12:58:23.531Z,1.50
2019-06-04T13:00:55.876Z,4.70
2019-06-04T13:03:28.737Z,2.50
2019-06-04T13:06:02.741Z,1.77
2019-06-04T13:08:34.605Z,1.57
2019-06-04T13:11:07.200Z,1.70
2019-06-04T13:13:39.908Z,2.30
2019-06-04T13:16:11.667Z,1.70
2019-06-04T13:18:42.966Z,1.80
2019-06-04T13:21:15.241Z,2.17
2019-06-04T13:23:47.202Z,2.10
2019-06-04T13:26:18.393Z,2.27
2019-06-04T13:28:49.682Z,2.00
2019-06-04T13:31:20.966Z,3.13
2019-06-04T13:33:53.217Z,2.20
2019-06-04T13:36:24.476Z,4.30
2019-06-04T13:38:55.703Z,2.50
2019-06-04T13:41:26.905Z,3.43
2019-06-04T13:43:58.112Z,2.73
2019-06-04T13:46:29.497Z,2.43
2019-06-04T13:49:01.559Z,2.70
2019-06-04T13:51:32.753Z,5.27
2019-06-04T13:54:03.933Z,3.73
2019-06-04T13:56:35.101Z,3.20
2019-06-04T13:59:06.517Z,2.90
2019-06-04T14:01:37.752Z,4.07
2019-06-04T14:04:11.046Z,2.80
2019-06-04T14:06:42.124Z,3.13
2019-06-04T14:09:16.705Z,3.10
2019-06-04T14:11:46.043Z,2.80
2019-06-04T14:14:29.862Z,5.43
2019-06-04T14:16:50.121Z,3.00
2019-06-04T14:19:21.356Z,3.87
2019-06-04T14:21:52.549Z,3.17
2019-06-04T14:24:23.624Z,3.77
2019-06-04T14:26:54.932Z,3.93
2019-06-04T14:29:26.163Z,2.80
2019-06-04T14:31:57.318Z,3.57
2019-06-04T14:34:28.517Z,3.40
2019-06-04T14:36:59.775Z,4.80
2019-06-04T14:39:31.007Z,3.33
2019-06-04T14:42:02.078Z,4.70
2019-06-04T14:44:33.265Z,4.63
2019-06-04T14:47:04.457Z,6.53
2019-06-04T14:49:35.642Z,3.23
2019-06-04T14:52:08.072Z,3.60
2019-06-04T14:54:39.303Z,3.10
2019-06-04T14:57:10.545Z,3.63
2019-06-04T14:59:41.714Z,3.20
2019-06-04T15:02:14.541Z,3.50
2019-06-04T15:04:45.830Z,5.70
2019-06-04T15:07:21.768Z,3.40
2019-06-04T15:09:49.955Z,3.10
2019-06-04T15:12:21.261Z,3.00
2019-06-04T15:14:52.522Z,4.20
2019-06-04T15:17:23.732Z,3.80
2019-06-04T15:19:54.979Z,3.40
2019-06-04T15:22:26.256Z,3.57
2019-06-04T15:24:57.338Z,6.47
2019-06-04T15:27:28.406Z,3.63
2019-06-04T15:30:02.516Z,3.70
2019-06-04T15:32:33.065Z,3.17
2019-06-04T15:35:05.077Z,4.83
2019-06-04T15:37:36.154Z,2.90
2019-06-04T15:40:08.101Z,5.27
2019-06-04T15:42:39.331Z,6.17
2019-06-04T15:45:10.585Z,4.13
2019-06-04T15:47:41.743Z,4.00
2019-06-04T15:50:13.574Z,3.37
2019-06-04T15:52:52.043Z,3.53
2019-06-04T15:55:18.524Z,3.83
2019-06-04T15:57:49.907Z,3.53
2019-06-04T16:00:21.752Z,3.20
2019-06-04T16:02:53.643Z,8.80
2019-06-04T16:05:24.881Z,3.77
2019-06-04T16:07:56.204Z,3.40
2019-06-04T16:10:30.287Z,3.47
2019-06-04T16:13:00.236Z,4.20
2019-06-04T16:15:31.483Z,3.30
2019-06-04T16:18:02.555Z,3.83
2019-06-04T16:20:37.608Z,3.50
2019-06-04T16:23:08.948Z,4.60
2019-06-04T16:25:40.089Z,3.47
2019-06-04T16:28:14.624Z,3.87
2019-06-04T16:30:45.386Z,3.60
2019-06-04T16:33:18.877Z,3.63
2019-06-04T16:35:50.439Z,3.93
2019-06-04T16:38:26.912Z,3.17
2019-06-04T16:40:54.585Z,4.10
2019-06-04T16:43:27.046Z,3.80
2019-06-04T16:45:58.727Z,3.67
2019-06-04T16:48:30.912Z,3.90
2019-06-04T16:51:02.327Z,3.50
2019-06-04T16:53:33.544Z,6.43
2019-06-04T16:56:04.787Z,4.00
2019-06-04T16:58:36.030Z,3.50
2019-06-04T17:01:07.374Z,3.73
2019-06-04T17:03:38.605Z,6.00
2019-06-04T17:06:09.868Z,4.20
2019-06-04T17:08:44.371Z,3.70
2019-06-04T17:11:14.321Z,4.07
2019-06-04T17:13:45.510Z,4.10
2019-06-04T17:16:17.239Z,4.23
2019-06-04T17:18:48.655Z,3.80
2019-06-04T17:21:21.018Z,3.53
2019-06-04T17:23:52.527Z,3.80
2019-06-04T17:26:24.721Z,4.10
2019-06-04T17:28:56.563Z,4.03
2019-06-04T17:31:28.079Z,3.23
2019-06-04T17:33:59.383Z,3.83
2019-06-04T17:36:30.800Z,3.97
2019-06-04T17:39:01.900Z,4.23
2019-06-04T17:41:34.865Z,4.10
2019-06-04T17:44:06.078Z,3.93
2019-06-04T17:46:37.152Z,4.20
2019-06-04T17:49:08.402Z,4.87
2019-06-04T17:51:39.580Z,4.07
2019-06-04T17:54:10.722Z,4.73
2019-06-04T17:56:41.897Z,4.47
2019-06-04T17:59:13.112Z,4.50
2019-06-04T18:01:44.446Z,4.43
2019-06-04T18:04:15.643Z,4.77
2019-06-04T18:06:46.786Z,4.63
2019-06-04T18:09:17.858Z,3.93
2019-06-04T18:11:48.941Z,4.40
2019-06-04T18:14:20.033Z,4.90
2019-06-04T18:16:51.239Z,5.20
2019-06-04T18:19:22.321Z,4.93
2019-06-04T18:21:53.499Z,4.90
2019-06-04T18:24:24.585Z,4.70
2019-06-04T18:26:57.983Z,4.50
2019-06-04T18:29:29.467Z,7.00
2019-06-04T18:32:00.674Z,4.80
2019-06-04T18:34:32.962Z,5.27
2019-06-04T18:37:04.171Z,4.33
2019-06-04T18:39:36.548Z,5.03
2019-06-04T18:42:07.861Z,7.53
2019-06-04T18:44:38.998Z,5.83
2019-06-04T18:47:10.214Z,5.40
2019-06-04T18:49:43.218Z,4.93
2019-06-04T18:52:14.391Z,5.10
2019-06-04T18:54:45.713Z,5.00
2019-06-04T18:57:16.949Z,5.20
2019-06-04T18:59:48.226Z,5.80
2019-06-04T19:02:19.583Z,5.47
2019-06-04T19:04:50.789Z,6.43
2019-06-04T19:07:21.982Z,6.20
2019-06-04T19:09:53.541Z,5.90
2019-06-04T19:12:24.599Z,5.63
2019-06-04T19:14:55.825Z,6.20
2019-06-04T19:17:27.152Z,5.60
2019-06-04T19:19:58.286Z,7.70
2019-06-04T19:22:29.471Z,5.77
2019-06-04T19:25:00.622Z,5.80
2019-06-04T19:27:33.119Z,7.47
2019-06-04T19:30:04.979Z,6.60
2019-06-04T19:32:39.442Z,6.60
2019-06-04T19:35:09.819Z,7.57
2019-06-04T19:37:41.354Z,6.47
2019-06-04T19:40:13.680Z,6.67
2019-06-04T19:42:45.224Z,6.50
2019-06-04T19:45:17.569Z,6.53
2019-06-04T19:47:48.893Z,6.97
2019-06-04T19:50:20.157Z,7.57
2019-06-04T19:52:51.427Z,6.57
2019-06-04T19:55:22.564Z,7.77
2019-06-04T19:57:53.821Z,7.77
2019-06-04T20:00:25.635Z,8.43
2019-06-04T20:02:56.870Z,7.20
2019-06-04T20:05:44.149Z,8.83
2019-06-04T20:08:00.879Z,7.80
2019-06-04T20:10:32.106Z,11.47
2019-06-04T20:13:03.401Z,8.50
2019-06-04T20:15:34.534Z,8.30
2019-06-04T20:18:05.908Z,8.20
2019-06-04T20:20:37.354Z,8.50
2019-06-04T20:23:08.620Z,8.30
2019-06-04T20:25:40.032Z,8.50
2019-06-04T20:28:11.135Z,8.40
2019-06-04T20:30:42.867Z,7.57
2019-06-04T20:33:14.111Z,8.33
2019-06-04T20:35:45.539Z,8.03
2019-06-04T20:38:16.830Z,7.53
2019-06-04T20:40:47.971Z,7.83
2019-06-04T20:43:19.197Z,10.30
2019-06-04T20:45:50.481Z,9.37
2019-06-04T20:48:22.843Z,10.30
2019-06-04T20:50:54.090Z,9.23
2019-06-04T20:53:25.265Z,10.00
2019-06-04T20:55:56.463Z,9.50
2019-06-04T20:58:27.596Z,10.17
2019-06-04T21:00:58.870Z,10.07
2019-06-04T21:03:30.120Z,10.37
2019-06-04T21:06:01.381Z,11.27
2019-06-04T21:08:32.544Z,11.53
2019-06-04T21:11:04.047Z,13.20
2019-06-04T21:13:35.405Z,12.40
2019-06-04T21:16:06.806Z,12.77
2019-06-04T21:18:37.964Z,13.43
2019-06-04T21:21:09.225Z,15.47
2019-06-04T21:23:40.388Z,12.60
2019-06-04T21:26:11.766Z,11.63
2019-06-04T21:28:43.444Z,11.50
2019-06-04T21:31:14.622Z,10.30
2019-06-04T21:33:45.864Z,11.00
2019-06-04T21:36:17.109Z,9.90
2019-06-04T21:38:48.421Z,8.83
2019-06-04T21:41:19.585Z,10.70
2019-06-04T21:43:51.018Z,13.47
2019-06-04T21:46:22.356Z,10.90
2019-06-04T21:48:53.564Z,10.83
2019-06-04T21:51:25.024Z,9.50
2019-06-04T21:53:56.391Z,10.40
2019-06-04T21:56:27.634Z,10.10
2019-06-04T21:58:58.983Z,8.60
2019-06-04T22:01:30.222Z,9.93
2019-06-04T22:04:01.741Z,12.50
2019-06-04T22:06:32.969Z,9.27
2019-06-04T22:09:08.081Z,12.57
2019-06-04T22:11:39.236Z,9.63
2019-06-04T22:14:10.419Z,9.60
2019-06-04T22:16:41.658Z,9.70
2019-06-04T22:19:12.834Z,9.90
2019-06-04T22:21:44.068Z,9.50
2019-06-04T22:24:15.369Z,9.27
2019-06-04T22:26:47.943Z,9.33
2019-06-04T22:29:19.405Z,13.10
2019-06-04T22:31:52.924Z,9.93
2019-06-04T22:34:24.327Z,10.23
2019-06-04T22:36:55.498Z,10.27
2019-06-04T22:39:27.997Z,10.07
2019-06-04T22:41:59.483Z,10.20
2019-06-04T22:44:30.826Z,11.00
2019-06-04T22:47:01.903Z,9.93
2019-06-04T22:49:33.087Z,10.67
2019-06-04T22:52:04.428Z,9.77
2019-06-04T22:54:35.517Z,10.50
2019-06-04T22:57:06.733Z,10.83
2019-06-04T22:59:38.090Z,11.20
2019-06-04T23:02:09.211Z,10.20
2019-06-04T23:04:40.442Z,9.80
2019-06-04T23:07:11.674Z,10.63
2019-06-04T23:09:42.762Z,20.17
2019-06-04T23:12:13.835Z,9.90
2019-06-04T23:14:45.649Z,10.43
2019-06-04T23:17:16.879Z,9.27
2019-06-04T23:19:48.011Z,8.73
2019-06-04T23:22:19.219Z,9.10
2019-06-04T23:24:50.446Z,9.67
2019-06-04T23:27:21.689Z,9.50
2019-06-04T23:29:54.136Z,9.30
2019-06-04T23:32:25.822Z,9.50
2019-06-04T23:34:57.154Z,10.10
2019-06-04T23:37:28.309Z,9.50
2019-06-04T23:40:01.306Z,9.67
2019-06-04T23:42:33.808Z,10.00
2019-06-04T23:45:06.223Z,9.60
2019-06-04T23:47:37.544Z,9.43
2019-06-04T23:50:09.730Z,12.60
2019-06-04T23:52:41.085Z,9.27
2019-06-04T23:55:14.150Z,8.37
2019-06-04T23:57:45.226Z,8.73
